Time;durP1;ratioP1;P1;durP2;ratioP2;P2;SDS_P1;SDS_P2;PMS_P1;PMS_P2;Temp;Humidity;BMP_temperature;BMP_pressure;BME280_temperature;BME280_humidity;BME280_pressure;Samples;Min_cycle;Max_cycle;Signal;HPM_P1;HPM_P2
2021/12/20 00:00:18;;;;;;;;;19.50;19.50;;;;;9.07;62.50;102259.28;5016534;28;45489;-65
2021/12/20 00:02:47;;;;;;;;;27.75;21.25;;;;;8.99;62.81;102237.53;5013050;28;45315;-66
2021/12/20 00:05:14;;;;;;;;;26.00;23.00;;;;;9.13;62.99;102256.06;5017261;28;45909;-65
2021/12/20 00:07:40;;;;;;;;;28.25;23.75;;;;;9.14;62.29;102245.47;5017424;28;45505;-66
2021/12/20 00:10:06;;;;;;;;;31.75;20.25;;;;;9.18;63.25;102243.91;5016406;28;45558;-67
2021/12/20 00:12:32;;;;;;;;;26.50;24.75;;;;;9.21;63.08;102238.75;5023783;28;45559;-65
2021/12/20 00:14:57;;;;;;;;;27.25;20.25;;;;;9.12;62.64;102223.13;5025047;28;45485;-67
2021/12/20 00:17:23;;;;;;;;;26.00;23.00;;;;;9.11;63.17;102215.97;5029527;28;45004;-65
2021/12/20 00:19:48;;;;;;;;;32.75;21.00;;;;;9.22;62.88;102233.50;5031764;28;45160;-65
2021/12/20 00:22:13;;;;;;;;;25.00;22.00;;;;;9.25;63.42;102239.81;5024334;28;45356;-64
2021/12/20 00:24:39;;;;;;;;;19.00;18.50;;;;;9.25;62.44;102231.81;5020458;28;45469;-66
2021/12/20 00:27:07;;;;;;;;;25.50;22.00;;;;;9.25;62.69;102230.06;5027617;28;45237;-67
2021/12/20 00:29:33;;;;;;;;;20.25;19.00;;;;;9.25;63.25;102242.50;5020235;28;45332;-65
2021/12/20 00:31:59;;;;;;;;;26.25;22.50;;;;;9.08;63.66;102210.47;5019377;28;45351;-66
2021/12/20 00:34:24;;;;;;;;;24.50;18.50;;;;;9.12;63.00;102222.22;5018083;28;48165;-65
2021/12/20 00:36:57;;;;;;;;;24.25;17.00;;;;;9.15;62.11;102227.72;5019305;28;45725;-67
2021/12/20 00:42:07;;;;;;;;;25.75;20.75;;;;;9.15;63.05;102227.72;5034555;28;45218;-66
2021/12/20 00:44:33;;;;;;;;;19.25;17.75;;;;;9.17;62.98;102229.66;5028922;28;45131;-67
2021/12/20 00:46:58;;;;;;;;;20.00;17.75;;;;;9.15;62.82;102225.97;5014012;28;45104;-66
2021/12/20 00:49:23;;;;;;;;;16.00;16.00;;;;;9.17;62.77;102223.38;5011290;28;45240;-67
2021/12/20 00:51:49;;;;;;;;;20.25;17.75;;;;;9.18;61.99;102227.91;5031352;28;45135;-66
2021/12/20 00:54:14;;;;;;;;;19.50;17.25;;;;;9.15;63.01;102220.63;5027470;28;46622;-67
2021/12/20 00:56:39;;;;;;;;;19.25;17.50;;;;;9.17;62.25;102224.31;5013701;28;45145;-65
2021/12/20 00:59:05;;;;;;;;;21.75;19.75;;;;;9.14;62.86;102220.53;5014156;28;45020;-65
2021/12/20 01:01:30;;;;;;;;;20.50;18.25;;;;;9.13;62.79;102218.72;5017011;28;45202;-66
2021/12/20 01:03:55;;;;;;;;;24.50;17.25;;;;;8.98;62.48;102189.47;5032841;28;45094;-67
2021/12/20 01:06:21;;;;;;;;;17.25;16.00;;;;;9.14;62.32;102220.53;5033219;28;44945;-67
2021/12/20 01:08:48;;;;;;;;;28.75;20.00;;;;;9.07;62.75;102202.38;5032986;28;45369;-67
2021/12/20 01:11:20;;;;;;;;;25.25;20.75;;;;;9.02;63.10;102202.13;5029357;28;45162;-65
2021/12/20 01:13:45;;;;;;;;;24.25;19.00;;;;;9.02;62.92;102210.13;5030446;28;46027;-66
2021/12/20 01:16:13;;;;;;;;;19.00;17.50;;;;;8.90;62.64;102193.44;5030990;28;45028;-63
2021/12/20 01:18:38;;;;;;;;;22.25;17.25;;;;;8.84;62.44;102173.63;5031350;28;45114;-65
2021/12/20 01:21:04;;;;;;;;;23.50;19.25;;;;;8.99;63.22;102204.59;5033187;28;45168;-65
2021/12/20 01:23:29;;;;;;;;;22.25;19.00;;;;;9.02;63.25;102203.06;5033069;28;45496;-67
2021/12/20 01:25:54;;;;;;;;;18.50;17.25;;;;;9.02;62.52;102195.06;5032711;28;45393;-65
2021/12/20 01:28:20;;;;;;;;;29.50;18.00;;;;;9.05;62.37;102194.28;5032759;28;45195;-67
2021/12/20 01:30:45;;;;;;;;;29.25;25.25;;;;;9.07;63.00;102194.38;5033279;28;45071;-67
2021/12/20 01:33:12;;;;;;;;;26.50;20.25;;;;;9.03;63.03;102207.53;5032850;28;45497;-65
2021/12/20 01:35:40;;;;;;;;;21.75;20.00;;;;;8.96;62.51;102184.03;5032618;28;45141;-66
2021/12/20 01:38:06;;;;;;;;;22.75;18.00;;;;;9.05;63.55;102202.28;5033478;28;45094;-67
2021/12/20 01:40:34;;;;;;;;;21.75;20.00;;;;;9.08;63.31;102198.91;5032733;28;45287;-66
2021/12/20 01:43:01;;;;;;;;;23.75;16.25;;;;;9.10;63.75;102202.56;5032470;28;45524;-64
2021/12/20 01:45:29;;;;;;;;;22.25;18.75;;;;;9.09;63.06;102193.66;5032645;28;45007;-66
2021/12/20 01:48:11;;;;;;;;;22.50;18.00;;;;;9.11;62.45;102191.06;5032999;28;45223;-63
2021/12/20 01:53:20;;;;;;;;;25.50;21.50;;;;;9.02;63.30;102187.06;5031900;28;45233;-66
2021/12/20 01:55:46;;;;;;;;;22.25;20.00;;;;;9.04;62.26;102190.72;5032706;28;45073;-67
2021/12/20 01:58:11;;;;;;;;;32.25;25.75;;;;;9.04;63.51;102189.78;5032922;28;45033;-67
2021/12/20 02:00:37;;;;;;;;;25.00;22.75;;;;;9.10;63.10;102187.47;5031943;28;45116;-65
2021/12/20 02:03:03;;;;;;;;;25.50;21.25;;;;;9.11;62.31;102180.41;5031207;28;45076;-65
2021/12/20 02:08:14;;;;;;;;;32.25;24.00;;;;;9.13;63.16;102189.41;5032311;28;45469;-65
2021/12/20 02:10:40;;;;;;;;;33.25;25.50;;;;;8.94;62.77;102155.44;5032778;28;45025;-65
2021/12/20 02:13:06;;;;;;;;;26.75;23.00;;;;;9.12;62.85;102187.56;5032406;28;45352;-65
2021/12/20 02:15:31;;;;;;;;;29.75;22.25;;;;;9.15;63.28;102183.31;5031949;28;45258;-66
2021/12/20 02:17:57;;;;;;;;;32.00;31.75;;;;;9.07;62.61;102159.72;5031168;28;45063;-67
2021/12/20 02:20:27;;;;;;;;;25.50;24.00;;;;;9.21;62.05;102180.06;5031188;28;45380;-66
2021/12/20 02:22:55;;;;;;;;;28.50;25.50;;;;;9.04;62.08;102147.13;5030643;28;46001;-66
2021/12/20 02:25:20;;;;;;;;;29.25;21.75;;;;;9.05;61.90;102151.63;5028632;28;45034;-65
2021/12/20 02:27:49;;;;;;;;;28.50;25.75;;;;;9.14;61.71;102168.16;5032055;28;45115;-65
2021/12/20 02:30:38;;;;;;;;;42.00;31.50;;;;;9.26;61.86;102185.66;5031736;28;45080;-65
2021/12/20 02:38:33;;;;;;;;;34.00;30.75;;;;;9.19;61.58;102172.00;5029819;28;45016;-68
2021/12/20 02:41:10;;;;;;;;;33.50;29.50;;;;;9.18;62.17;102175.47;5030974;28;45192;-67
2021/12/20 02:43:41;;;;;;;;;35.75;32.75;;;;;9.22;62.27;102179.22;5031160;28;45482;-65
2021/12/20 02:49:11;;;;;;;;;32.50;30.25;;;;;9.25;62.22;102162.47;5031347;28;44960;-65
2021/12/20 02:51:38;;;;;;;;;34.00;27.50;;;;;9.20;61.60;102164.91;5032102;28;44948;-68
2021/12/20 02:54:06;;;;;;;;;47.75;36.75;;;;;9.22;62.38;102164.16;5031550;28;45815;-67
2021/12/20 02:56:33;;;;;;;;;42.25;35.50;;;;;9.26;61.71;102165.25;5032141;28;45041;-65
2021/12/20 02:58:59;;;;;;;;;41.00;34.50;;;;;9.27;62.29;102160.81;5031108;28;44950;-66
2021/12/20 03:01:25;;;;;;;;;37.00;32.25;;;;;9.32;62.38;102168.25;5032320;28;45256;-69
2021/12/20 03:03:52;;;;;;;;;38.75;34.75;;;;;9.33;62.17;102161.16;5031203;28;45314;-66
2021/12/20 03:06:27;;;;;;;;;40.75;34.00;;;;;9.36;61.90;102161.31;5031592;28;45182;-68
2021/12/20 03:08:55;;;;;;;;;41.25;35.25;;;;;8.71;61.08;102056.53;5031687;28;45125;-68
2021/12/20 03:11:24;;;;;;;;;45.75;34.50;;;;;9.19;61.59;102152.41;5032552;28;44934;-67
2021/12/20 03:13:54;;;;;;;;;33.75;25.75;;;;;9.20;61.65;102160.47;5031015;28;45049;-67
2021/12/20 03:16:20;;;;;;;;;37.75;33.00;;;;;9.18;61.46;102154.16;5031364;28;45164;-65
2021/12/20 03:18:46;;;;;;;;;35.50;34.00;;;;;9.04;61.64;102131.13;5031285;28;44884;-66
2021/12/20 03:21:11;;;;;;;;;45.75;31.25;;;;;9.09;60.96;102139.38;5032335;28;44990;-66
2021/12/20 03:23:37;;;;;;;;;42.00;32.50;;;;;9.13;61.60;102131.66;5031918;28;45530;-67
2021/12/20 03:26:02;;;;;;;;;36.50;30.50;;;;;9.00;61.77;102108.72;5031924;28;45009;-64
2021/12/20 03:28:28;;;;;;;;;38.50;30.25;;;;;9.16;61.95;102136.25;5031872;28;44906;-65
2021/12/20 03:30:53;;;;;;;;;39.25;33.00;;;;;9.18;61.92;102139.91;5031150;28;45364;-64
2021/12/20 03:33:19;;;;;;;;;32.75;26.50;;;;;9.18;61.46;102150.56;5030321;28;45091;-65
2021/12/20 03:35:44;;;;;;;;;37.25;29.25;;;;;9.22;61.30;102152.56;5032038;28;45006;-67
2021/12/20 03:38:09;;;;;;;;;30.00;26.50;;;;;9.21;60.94;102140.06;5034582;28;44993;-66
2021/12/20 03:40:36;;;;;;;;;30.75;27.75;;;;;9.23;60.64;102141.06;5033045;28;45126;-66
2021/12/20 03:43:03;;;;;;;;;28.25;28.25;;;;;9.16;60.57;102134.50;5034932;28;46198;-65
2021/12/20 03:45:28;;;;;;;;;30.50;24.75;;;;;9.18;61.62;102134.56;5035307;28;45108;-65
2021/12/20 03:47:53;;;;;;;;;32.00;26.00;;;;;9.17;61.51;102132.72;5033960;28;44973;-65
2021/12/20 03:50:19;;;;;;;;;38.50;32.00;;;;;9.18;61.21;102121.25;5033700;28;45184;-65
2021/12/20 03:52:44;;;;;;;;;37.50;30.75;;;;;9.20;61.35;102122.22;5033310;28;45929;-66
2021/12/20 03:55:12;;;;;;;;;37.25;31.00;;;;;9.12;61.21;102111.13;5031994;28;45080;-65
2021/12/20 03:57:37;;;;;;;;;35.25;28.75;;;;;9.21;60.77;102122.31;5033805;28;45117;-66
2021/12/20 04:00:10;;;;;;;;;33.75;27.25;;;;;9.17;60.64;102123.00;5034997;28;45302;-65
2021/12/20 04:02:40;;;;;;;;;43.50;32.50;;;;;9.14;60.84;102129.88;5034591;28;45918;-66
2021/12/20 04:05:06;;;;;;;;;35.00;30.00;;;;;9.12;61.44;102134.22;5033193;28;44990;-66
2021/12/20 04:07:32;;;;;;;;;37.00;28.25;;;;;9.16;61.80;102125.59;5034272;28;45328;-67
2021/12/20 04:09:57;;;;;;;;;38.00;25.75;;;;;9.02;61.59;102107.09;5035196;28;45005;-65
2021/12/20 04:12:22;;;;;;;;;36.25;33.50;;;;;9.22;61.34;102125.88;5034905;28;45071;-66
2021/12/20 04:14:48;;;;;;;;;31.00;26.50;;;;;9.19;61.72;102126.66;5034584;28;45001;-66
2021/12/20 04:17:13;;;;;;;;;30.75;27.00;;;;;9.06;61.48;102102.84;5034176;28;45070;-67
2021/12/20 04:19:38;;;;;;;;;29.50;25.25;;;;;9.21;60.72;102124.06;5034297;28;44941;-66
2021/12/20 04:22:04;;;;;;;;;34.25;30.00;;;;;9.25;61.16;102134.06;5034241;28;45473;-67
2021/12/20 04:24:29;;;;;;;;;35.25;27.25;;;;;9.26;61.13;102129.66;5049466;28;45056;-67
2021/12/20 04:26:54;;;;;;;;;37.75;28.25;;;;;9.29;61.06;102129.78;5033427;28;45175;-65
2021/12/20 04:29:20;;;;;;;;;34.50;29.75;;;;;9.20;60.72;102108.91;5034428;28;45114;-66
2021/12/20 04:31:46;;;;;;;;;38.25;29.50;;;;;9.31;61.06;102138.81;5033879;28;45547;-64
2021/12/20 04:34:11;;;;;;;;;37.25;28.00;;;;;9.27;60.45;102145.72;5032826;28;45046;-65
2021/12/20 04:36:37;;;;;;;;;40.00;33.25;;;;;9.27;60.76;102132.38;5032909;28;44899;-63
2021/12/20 04:39:07;;;;;;;;;35.50;30.50;;;;;9.25;60.57;102136.72;5032411;28;45328;-66
2021/12/20 04:41:32;;;;;;;;;30.25;28.00;;;;;9.26;61.03;102127.00;5033324;28;44997;-66
2021/12/20 04:43:57;;;;;;;;;34.00;29.25;;;;;9.21;61.03;102135.66;5034247;28;45044;-65
2021/12/20 04:46:23;;;;;;;;;43.25;34.75;;;;;9.04;61.44;102113.41;5048037;28;45017;-65
2021/12/20 04:48:48;;;;;;;;;34.50;28.25;;;;;9.11;61.43;102113.75;5033290;28;45007;-65
2021/12/20 04:51:13;;;;;;;;;27.25;22.50;;;;;9.09;61.48;102110.06;5032555;28;45066;-66
2021/12/20 04:53:38;;;;;;;;;35.00;29.00;;;;;9.12;60.97;102110.22;5031548;28;45105;-67
2021/12/20 04:56:04;;;;;;;;;39.75;33.00;;;;;9.09;60.45;102118.06;5033847;28;45163;-66
2021/12/20 04:58:29;;;;;;;;;34.50;27.25;;;;;9.17;60.91;102135.38;5034053;28;44988;-66
2021/12/20 05:00:55;;;;;;;;;22.75;20.25;;;;;9.17;61.00;102125.66;5033156;28;46097;-64
2021/12/20 05:03:20;;;;;;;;;36.75;29.00;;;;;9.18;61.58;102138.16;5033918;28;44942;-65
2021/12/20 05:05:45;;;;;;;;;34.00;27.00;;;;;9.16;61.76;102144.25;5032924;28;45148;-67
2021/12/20 05:08:12;;;;;;;;;35.25;23.00;;;;;8.97;61.26;102103.22;5033713;28;44954;-65
2021/12/20 05:10:40;;;;;;;;;32.75;28.00;;;;;9.16;61.25;102137.16;5033727;28;45761;-66
2021/12/20 05:13:08;;;;;;;;;35.50;27.50;;;;;9.18;61.47;102135.47;5033301;28;44973;-64
2021/12/20 05:15:36;;;;;;;;;38.75;30.50;;;;;9.14;60.47;102135.22;5033454;28;45004;-66
2021/12/20 05:18:03;;;;;;;;;29.50;24.25;;;;;9.10;61.44;102136.81;5032655;28;45166;-66
2021/12/20 05:20:28;;;;;;;;;33.00;27.50;;;;;8.90;61.28;102106.41;5032696;28;46098;-66
2021/12/20 05:22:55;;;;;;;;;26.25;24.25;;;;;8.87;61.77;102122.22;5032200;28;44955;-66
2021/12/20 05:25:21;;;;;;;;;42.00;29.75;;;;;8.82;60.89;102111.28;5033373;28;45083;-64
2021/12/20 05:27:46;;;;;;;;;24.50;20.50;;;;;9.01;61.68;102144.31;5033145;28;45119;-66
2021/12/20 05:30:14;;;;;;;;;36.75;29.25;;;;;9.08;61.10;102140.25;5033362;28;46044;-64
2021/12/20 05:32:39;;;;;;;;;30.00;24.50;;;;;9.11;61.36;102133.31;5032318;28;45281;-65
2021/12/20 05:35:07;;;;;;;;;33.75;22.50;;;;;9.11;60.75;102141.31;5031556;28;45080;-67
2021/12/20 05:37:32;;;;;;;;;29.00;19.50;;;;;9.13;60.90;102136.06;5031165;28;45499;-68
2021/12/20 05:39:58;;;;;;;;;33.00;25.00;;;;;9.11;60.80;102127.09;5032528;28;45182;-67
2021/12/20 05:42:23;;;;;;;;;35.75;28.75;;;;;9.09;60.88;102131.38;5032962;28;45204;-66
2021/12/20 05:44:50;;;;;;;;;26.00;24.75;;;;;9.10;61.60;102133.25;5033071;28;45187;-64
2021/12/20 05:47:17;;;;;;;;;34.75;24.75;;;;;9.09;61.25;102124.34;5032977;28;45036;-64
2021/12/20 05:49:42;;;;;;;;;29.50;23.25;;;;;9.01;60.99;102105.25;5032956;28;46014;-65
2021/12/20 05:52:08;;;;;;;;;25.75;23.75;;;;;9.13;60.79;102128.97;5031477;28;45088;-64
2021/12/20 05:54:33;;;;;;;;;35.50;27.50;;;;;9.19;61.04;102144.41;5045145;28;45284;-65
2021/12/20 05:56:58;;;;;;;;;35.75;26.25;;;;;9.19;61.65;102134.66;5030522;28;44989;-67
2021/12/20 05:59:24;;;;;;;;;26.25;22.75;;;;;9.19;60.97;102136.41;5030797;28;45567;-67
2021/12/20 06:01:49;;;;;;;;;27.75;26.00;;;;;9.21;61.20;102138.31;5030676;28;45281;-67
2021/12/20 06:04:15;;;;;;;;;34.00;25.50;;;;;9.16;61.44;102136.25;5030447;28;45248;-64
2021/12/20 06:06:40;;;;;;;;;29.75;23.25;;;;;9.09;61.51;102136.72;5029689;28;44998;-65
2021/12/20 06:09:05;;;;;;;;;34.00;28.25;;;;;9.07;61.35;102130.41;5028342;28;46207;-66
2021/12/20 06:11:31;;;;;;;;;27.75;23.00;;;;;9.06;61.95;102134.81;5029001;28;45418;-65
2021/12/20 06:13:58;;;;;;;;;27.50;23.75;;;;;9.10;60.69;102139.47;5031484;28;45219;-67
2021/12/20 06:16:23;;;;;;;;;58.50;44.25;;;;;8.94;60.73;102118.13;5030849;28;45013;-66
2021/12/20 06:18:51;;;;;;;;;23.25;22.00;;;;;9.03;61.59;102134.66;5030188;28;46275;-65
2021/12/20 06:21:17;;;;;;;;;26.75;24.25;;;;;9.01;60.91;102131.91;5031738;28;45037;-67
2021/12/20 06:23:43;;;;;;;;;26.00;17.75;;;;;9.01;61.27;102131.91;5032167;28;45188;-64
2021/12/20 06:26:08;;;;;;;;;52.75;44.25;;;;;8.95;60.86;102120.91;5031395;28;45231;-64
2021/12/20 06:28:33;;;;;;;;;27.75;24.00;;;;;9.04;60.79;102133.78;5032313;28;45454;-66
2021/12/20 06:30:59;;;;;;;;;24.00;21.50;;;;;8.96;60.89;102116.47;5030875;28;45177;-64
2021/12/20 06:33:25;;;;;;;;;27.25;23.00;;;;;9.06;60.65;102141.88;5029694;28;45388;-66
2021/12/20 06:35:51;;;;;;;;;27.25;24.75;;;;;8.96;60.59;102124.47;5028070;28;45052;-65
2021/12/20 06:38:20;;;;;;;;;35.00;29.50;;;;;9.07;61.17;102149.97;5031177;28;45794;-64
2021/12/20 06:40:46;;;;;;;;;27.25;23.75;;;;;9.08;61.37;102149.16;5030620;28;45018;-65
2021/12/20 06:43:11;;;;;;;;;25.00;22.50;;;;;8.93;60.74;102122.56;5030691;28;45206;-66
2021/12/20 06:45:37;;;;;;;;;21.50;17.25;;;;;8.99;61.61;102146.91;5029139;28;45456;-66
2021/12/20 06:48:03;;;;;;;;;26.00;23.75;;;;;8.84;61.12;102120.31;5030447;28;45825;-66
2021/12/20 06:50:28;;;;;;;;;27.75;25.00;;;;;9.08;61.65;102158.91;5028700;28;45266;-64
2021/12/20 06:52:54;;;;;;;;;29.00;22.25;;;;;9.08;61.60;102159.81;5029608;28;44992;-66
2021/12/20 06:55:20;;;;;;;;;27.00;23.00;;;;;9.09;60.52;102155.38;5028913;28;45143;-64
2021/12/20 06:57:45;;;;;;;;;26.50;21.25;;;;;9.01;60.97;102158.56;5030178;28;46154;-66
2021/12/20 07:00:11;;;;;;;;;27.25;20.25;;;;;8.97;60.57;102160.97;5031121;28;45191;-66
2021/12/20 07:02:37;;;;;;;;;27.00;23.50;;;;;8.88;60.26;102142.72;5031561;28;45036;-64
2021/12/20 07:05:02;;;;;;;;;49.00;36.50;;;;;8.95;61.03;102151.97;5031377;28;45251;-66
2021/12/20 07:07:28;;;;;;;;;21.25;19.75;;;;;8.94;60.81;102167.06;5031151;28;45225;-64
2021/12/20 07:09:54;;;;;;;;;26.25;24.50;;;;;8.96;61.65;102170.72;5031051;28;44884;-66
2021/12/20 07:12:19;;;;;;;;;24.75;23.75;;;;;8.97;61.29;102167.19;5031416;28;45033;-67
2021/12/20 07:14:49;;;;;;;;;26.25;22.25;;;;;8.78;60.52;102132.38;5031241;28;45067;-67
2021/12/20 07:17:14;;;;;;;;;30.00;20.00;;;;;8.97;61.28;102164.53;5030242;28;45978;-67
2021/12/20 07:19:40;;;;;;;;;27.25;21.50;;;;;9.01;60.60;102166.56;5030011;28;45034;-65
2021/12/20 07:22:05;;;;;;;;;32.50;25.25;;;;;8.92;60.23;102147.38;5030466;28;45367;-65
2021/12/20 07:24:30;;;;;;;;;24.50;21.75;;;;;9.06;60.04;102163.22;5031512;28;45259;-66
2021/12/20 07:26:56;;;;;;;;;23.00;21.50;;;;;8.71;60.50;102115.13;5030763;28;45441;-67
2021/12/20 07:29:21;;;;;;;;;20.00;19.75;;;;;8.95;59.87;102170.63;5030206;28;45191;-67
2021/12/20 07:31:46;;;;;;;;;24.50;19.00;;;;;8.90;59.74;102175.69;5030254;28;45071;-67
2021/12/20 07:34:12;;;;;;;;;21.25;16.25;;;;;8.92;60.53;102171.34;5031349;28;44990;-67
2021/12/20 07:36:38;;;;;;;;;18.75;13.50;;;;;8.79;60.38;102140.47;5028476;28;45294;-65
2021/12/20 07:39:04;;;;;;;;;19.00;17.50;;;;;8.93;59.75;102173.22;5021722;28;45336;-66
2021/12/20 07:41:30;;;;;;;;;35.00;25.25;;;;;8.77;61.07;102146.53;5038111;28;45378;-67
2021/12/20 07:43:55;;;;;;;;;24.75;23.00;;;;;8.97;60.02;102174.28;5017194;28;45425;-64
2021/12/20 07:46:21;;;;;;;;;23.25;18.25;;;;;9.00;59.58;102179.78;5022754;28;45287;-65
2021/12/20 07:48:48;;;;;;;;;17.00;17.00;;;;;8.97;59.34;102171.63;5029384;28;45086;-66
2021/12/20 07:51:18;;;;;;;;;24.00;21.00;;;;;8.95;59.54;102174.19;5019373;28;45283;-67
2021/12/20 07:53:43;;;;;;;;;36.25;32.50;;;;;8.53;59.79;102096.38;5015840;28;45232;-66
2021/12/20 07:56:09;;;;;;;;;25.50;20.25;;;;;8.90;60.08;102162.38;5012358;28;46140;-67
2021/12/20 07:58:35;;;;;;;;;29.25;21.25;;;;;8.97;59.47;102180.53;5013280;28;45641;-66
2021/12/20 08:01:01;;;;;;;;;30.00;19.75;;;;;8.77;59.84;102150.09;5013334;28;45358;-68
2021/12/20 08:03:28;;;;;;;;;24.75;23.50;;;;;8.92;59.74;102171.34;5013509;28;45486;-66
2021/12/20 08:05:53;;;;;;;;;17.00;15.50;;;;;8.85;59.90;102164.78;5012933;28;45947;-67
2021/12/20 08:08:19;;;;;;;;;26.00;21.00;;;;;8.85;59.97;102175.44;5013075;28;45463;-66
2021/12/20 08:10:45;;;;;;;;;23.50;21.25;;;;;8.73;60.10;102169.44;5013269;28;45465;-67
2021/12/20 08:13:12;;;;;;;;;21.00;18.25;;;;;8.71;60.26;102184.41;5013345;28;45344;-67
2021/12/20 08:15:38;;;;;;;;;30.50;24.50;;;;;8.74;61.08;102178.31;5012792;28;46504;-68
2021/12/20 08:18:03;;;;;;;;;24.75;22.50;;;;;8.75;61.02;102183.75;5013100;28;45372;-65
2021/12/20 08:20:29;;;;;;;;;25.25;23.25;;;;;8.79;60.50;102174.16;5013119;28;45306;-67
2021/12/20 08:22:54;;;;;;;;;20.00;17.75;;;;;8.76;60.42;102169.59;5015634;28;45336;-66
2021/12/20 08:25:21;;;;;;;;;32.25;20.75;;;;;8.55;60.98;102131.09;5016349;28;46409;-66
2021/12/20 08:27:47;;;;;;;;;29.00;21.75;;;;;8.83;59.88;102190.44;5016294;28;45442;-66
2021/12/20 08:30:13;;;;;;;;;36.00;24.25;;;;;8.63;59.96;102167.97;5016532;28;45540;-65
2021/12/20 08:32:39;;;;;;;;;28.00;25.50;;;;;8.73;59.86;102195.13;5016449;28;45473;-64
2021/12/20 08:35:06;;;;;;;;;38.00;27.25;;;;;8.62;60.06;102186.53;5015598;28;46338;-65
2021/12/20 08:37:32;;;;;;;;;22.50;19.25;;;;;8.61;59.89;102198.00;5016083;28;45366;-65
2021/12/20 08:39:57;;;;;;;;;23.50;21.25;;;;;8.75;59.79;102204.16;5015966;28;45295;-66
2021/12/20 08:42:22;;;;;;;;;24.50;20.50;;;;;8.79;59.86;102204.44;5015939;28;45280;-66
2021/12/20 08:44:49;;;;;;;;;30.50;25.25;;;;;8.82;59.38;102209.91;5016023;28;45705;-65
2021/12/20 08:47:15;;;;;;;;;28.25;20.00;;;;;8.83;59.66;102208.19;5016095;28;45472;-65
2021/12/20 08:49:41;;;;;;;;;46.75;30.25;;;;;8.73;59.93;102176.47;5015862;28;45378;-64
2021/12/20 08:52:10;;;;;;;;;31.25;23.50;;;;;8.88;60.09;102212.00;5016345;28;45463;-65
2021/12/20 08:54:35;;;;;;;;;33.75;21.25;;;;;8.42;59.48;102133.00;5030658;28;46479;-64
2021/12/20 08:57:01;;;;;;;;;26.50;24.00;;;;;8.94;59.33;102217.69;5015167;28;45422;-63
2021/12/20 08:59:26;;;;;;;;;29.50;22.75;;;;;8.90;59.26;102194.34;5015693;28;45889;-66
2021/12/20 09:01:51;;;;;;;;;33.00;24.50;;;;;8.83;59.04;102195.75;5016221;28;45778;-64
2021/12/20 09:04:17;;;;;;;;;24.25;19.75;;;;;8.92;59.23;102210.44;5015389;28;46165;-65
2021/12/20 09:06:43;;;;;;;;;23.25;19.75;;;;;8.93;59.16;102221.19;5015524;28;45425;-64
2021/12/20 09:09:13;;;;;;;;;30.00;24.50;;;;;8.74;59.34;102194.31;5015518;28;45491;-65
2021/12/20 09:11:39;;;;;;;;;53.75;36.25;;;;;8.90;59.59;102220.09;5015834;28;46015;-66
2021/12/20 09:14:05;;;;;;;;;42.00;32.50;;;;;8.85;58.86;102234.06;5015419;28;45430;-66
2021/12/20 09:16:30;;;;;;;;;26.00;25.50;;;;;8.81;58.71;102216.09;5015042;28;45391;-63
2021/12/20 09:18:56;;;;;;;;;43.25;31.00;;;;;8.80;58.77;102218.66;5015067;28;45593;-66
2021/12/20 09:21:21;;;;;;;;;24.50;21.75;;;;;8.78;58.83;102215.91;5015231;28;45512;-66
2021/12/20 09:23:47;;;;;;;;;33.25;25.50;;;;;8.79;58.63;102216.81;5014826;28;46165;-67
2021/12/20 09:26:13;;;;;;;;;37.50;28.00;;;;;8.66;58.40;102197.47;5015295;28;45466;-67
2021/12/20 09:28:39;;;;;;;;;32.25;22.50;;;;;8.84;57.87;102220.66;5015384;28;45288;-68
2021/12/20 09:31:05;;;;;;;;;35.00;25.00;;;;;8.88;58.77;102216.44;5015484;28;45280;-65
2021/12/20 09:33:31;;;;;;;;;24.00;21.25;;;;;8.92;58.08;102221.09;5014665;28;45835;-67
2021/12/20 09:35:57;;;;;;;;;31.50;27.75;;;;;8.54;58.46;102155.88;5014752;28;45375;-65
2021/12/20 09:38:24;;;;;;;;;36.00;31.25;;;;;8.76;58.09;102195.31;5015046;28;45507;-67
2021/12/20 09:43:46;;;;;;;;;31.00;26.00;;;;;8.70;58.09;102200.31;5015308;28;46098;-67
2021/12/20 09:46:11;;;;;;;;;24.25;21.25;;;;;8.79;58.56;102232.78;5014403;28;45481;-67
2021/12/20 09:48:37;;;;;;;;;30.75;25.75;;;;;8.82;58.37;102232.97;5014376;28;45448;-63
2021/12/20 09:51:05;;;;;;;;;27.25;23.00;;;;;8.84;57.59;102232.25;5015371;28;45459;-66
2021/12/20 09:53:31;;;;;;;;;30.00;24.25;;;;;8.81;57.97;102218.75;5014871;28;45639;-67
2021/12/20 09:55:59;;;;;;;;;32.00;23.50;;;;;8.78;58.64;102225.66;5014426;28;45350;-63
2021/12/20 09:58:26;;;;;;;;;28.75;25.75;;;;;8.83;57.88;102226.84;5014554;28;45417;-66
2021/12/20 10:00:53;;;;;;;;;31.50;23.25;;;;;8.89;58.40;102228.91;5014841;28;45633;-65
2021/12/20 10:03:20;;;;;;;;;28.75;24.75;;;;;8.94;57.72;102227.44;5014678;28;46243;-65
2021/12/20 10:05:46;;;;;;;;;35.75;30.00;;;;;9.03;58.16;102227.97;5014582;28;45558;-63
2021/12/20 10:08:19;;;;;;;;;27.75;25.00;;;;;8.81;57.33;102193.81;5014361;28;45285;-65
2021/12/20 10:10:48;;;;;;;;;31.25;22.00;;;;;9.06;57.45;102230.81;5014721;28;45588;-66
2021/12/20 10:13:25;;;;;;;;;31.75;27.50;;;;;9.04;57.07;102230.72;5011904;28;46893;-64
2021/12/20 10:15:51;;;;;;;;;29.00;24.75;;;;;8.96;57.61;102231.09;5029146;28;45441;-65
2021/12/20 10:18:16;;;;;;;;;27.75;20.25;;;;;9.01;57.23;102234.97;5014673;28;45296;-67
2021/12/20 10:20:48;;;;;;;;;32.25;25.25;;;;;8.89;57.19;102213.81;5014917;28;45551;-66
2021/12/20 10:23:24;;;;;;;;;29.25;24.00;;;;;8.96;58.22;102236.41;5015016;28;46187;-67
2021/12/20 10:25:59;;;;;;;;;25.00;21.75;;;;;8.98;58.26;102224.13;5014490;28;45508;-67
2021/12/20 10:28:30;;;;;;;;;29.50;25.25;;;;;9.00;57.02;102228.69;5014073;28;45382;-67
2021/12/20 10:31:06;;;;;;;;;29.25;24.50;;;;;9.00;57.65;102222.44;5013942;28;45427;-66
2021/12/20 10:33:32;;;;;;;;;28.75;23.75;;;;;8.72;58.26;102178.25;5014247;28;46262;-67
2021/12/20 10:36:13;;;;;;;;;23.00;21.00;;;;;8.78;57.20;102191.91;5012384;28;45595;-66
2021/12/20 10:38:49;;;;;;;;;21.00;18.50;;;;;8.99;57.40;102220.59;5013639;28;45579;-65
2021/12/20 10:41:18;;;;;;;;;28.50;27.50;;;;;9.03;58.11;102219.97;5014810;28;45618;-65
2021/12/20 10:43:51;;;;;;;;;23.75;23.00;;;;;9.00;57.26;102204.69;5013509;28;47286;-67
2021/12/20 10:46:19;;;;;;;;;26.25;22.00;;;;;9.01;57.27;102202.97;5013160;28;45464;-67
2021/12/20 10:48:48;;;;;;;;;23.75;18.50;;;;;9.05;57.12;102210.28;5013980;28;45421;-66
2021/12/20 10:51:21;;;;;;;;;18.50;16.75;;;;;8.75;56.66;102166.84;5012554;28;45601;-66
2021/12/20 10:53:51;;;;;;;;;19.75;17.00;;;;;9.01;57.01;102203.88;5013204;28;45535;-66
2021/12/20 10:56:18;;;;;;;;;19.25;13.00;;;;;8.85;57.06;102174.53;5013438;28;45303;-65
2021/12/20 10:58:44;;;;;;;;;19.50;17.00;;;;;8.70;56.96;102157.69;5013646;28;45477;-66
2021/12/20 11:01:27;;;;;;;;;21.00;20.50;;;;;9.01;57.27;102195.88;5013599;28;45442;-64
2021/12/20 11:04:08;;;;;;;;;26.00;20.25;;;;;9.07;57.67;102205.03;5013460;28;45510;-67
2021/12/20 11:06:45;;;;;;;;;12.50;12.50;;;;;9.10;57.19;102207.88;5013374;28;45462;-67
2021/12/20 11:09:17;;;;;;;;;16.00;13.50;;;;;8.96;56.59;102189.38;5013340;28;45425;-67
2021/12/20 11:11:54;;;;;;;;;22.50;18.75;;;;;8.97;56.95;102183.19;5013534;28;46111;-66
2021/12/20 11:14:27;;;;;;;;;19.50;17.00;;;;;8.96;57.29;102175.09;5013470;28;45426;-67
2021/12/20 11:16:55;;;;;;;;;21.00;15.00;;;;;9.14;56.71;102180.53;5013173;28;45438;-67
2021/12/20 11:19:25;;;;;;;;;22.00;20.25;;;;;8.94;56.83;102147.47;5013121;28;45372;-67
2021/12/20 11:21:54;;;;;;;;;18.50;17.00;;;;;9.08;56.68;102185.56;5013908;28;45573;-65
2021/12/20 11:24:25;;;;;;;;;16.50;14.50;;;;;9.09;57.17;102187.38;5013040;28;46018;-66
2021/12/20 11:26:52;;;;;;;;;18.25;15.25;;;;;8.60;56.24;102105.63;5013423;28;45324;-67
2021/12/20 11:29:18;;;;;;;;;16.50;13.00;;;;;9.09;56.38;102188.31;5013299;28;45284;-65
2021/12/20 11:31:45;;;;;;;;;33.50;29.75;;;;;9.15;56.80;102182.41;5011588;28;45446;-64
2021/12/20 11:34:11;;;;;;;;;38.75;31.50;;;;;8.60;56.51;102093.22;5011649;28;47032;-67